Main page
METAR-TAF:

Airports :

Warsaw, Poland

Warsaw Chopin Airport

latitude: 52-10N, longitude: 020-58E, elevation: 106 m

Current weather observation

The report was made 26 minutes ago, at 05:00 UTC
Wind 4 kt from the North/Northeast
Temperature 13°C
Humidity 58%
Pressure 1022 hPa
Visibility 10 km or more
no clouds below 1500 m and no cumulonimbus

METAR: EPWA 060500Z 02004KT CAVOK 13/05 Q1022 NOSIG

Time: 07:26 (05:26 UTC)

Forecast

The report was made 5 hours and 56 minutes ago, at 23:30 UTC
Forecast valid from 06 at 00 UTC to 06 at 24 UTC
Wind 7 kt from the North
Visibility 10 km or more
no clouds below 1500 m and no cumulonimbus
Probability 40% :
Temporary
from 06 at 10 UTC to 06 at 17 UTC
Scattered clouds at a height of 5000 ft, Towering cumulus.

TAF: EPWA 052330Z 0600/0624 01007KT CAVOK PROB40 TEMPO 0610/0617 SCT050TCU

METAR-TAF

Weather observations and forecasts of more than 4000 airports (METAR and TAF reports).

The available stations are represented by yellow and red dots on the map.

Hover mouse over dot to see the name of the station.

Then click to see weather observations and forecasts.

To change the map : click on the green buttons with a black cross to zoom in, on the green button with a dash to zoom out, or on the green arrows for adjacent maps.


METAR-TAF: